createdAt,value
2022-11-15T00:01:46.364Z,14.45
2022-11-15T00:04:32.202Z,14.60
2022-11-15T00:07:40.182Z,12.88
2022-11-15T00:10:24.069Z,13.85
2022-11-15T00:13:12.404Z,14.13
2022-11-15T00:15:59.651Z,13.10
2022-11-15T00:18:50.318Z,13.15
2022-11-15T00:21:37.012Z,14.43
2022-11-15T00:24:22.765Z,13.48
2022-11-15T00:27:08.408Z,14.57
2022-11-15T00:29:57.212Z,14.63
2022-11-15T00:32:43.370Z,14.73
2022-11-15T00:35:29.454Z,14.35
2022-11-15T00:38:15.479Z,13.80
2022-11-15T00:41:07.734Z,14.13
2022-11-15T00:43:55.070Z,14.45
2022-11-15T00:46:40.795Z,13.13
2022-11-15T00:49:26.624Z,16.15
2022-11-15T00:52:12.611Z,15.10
2022-11-15T00:54:58.473Z,14.13
2022-11-15T00:57:44.863Z,14.55
2022-11-15T01:00:30.770Z,14.90
2022-11-15T01:03:16.772Z,15.55
2022-11-15T01:06:02.289Z,15.75
2022-11-15T01:08:47.830Z,17.58
2022-11-15T01:11:33.198Z,17.00
2022-11-15T01:14:24.182Z,20.30
2022-11-15T01:17:10.523Z,19.98
2022-11-15T01:19:56.017Z,18.63
2022-11-15T01:22:41.599Z,18.23
2022-11-15T01:25:27.254Z,17.05
2022-11-15T01:28:12.883Z,16.95
2022-11-15T01:31:00.712Z,16.08
2022-11-15T01:33:47.493Z,17.20
2022-11-15T01:36:32.900Z,15.60
2022-11-15T01:39:18.401Z,14.50
2022-11-15T01:42:04.374Z,13.32
2022-11-15T01:44:55.837Z,14.45
2022-11-15T01:47:46.815Z,13.95
2022-11-15T01:50:33.847Z,14.25
2022-11-15T01:53:22.418Z,13.68
2022-11-15T01:56:17.898Z,13.57
2022-11-15T01:59:06.708Z,14.15
2022-11-15T02:01:52.690Z,12.75
2022-11-15T02:04:43.862Z,14.25
2022-11-15T02:07:31.363Z,12.45
2022-11-15T02:10:22.288Z,13.57
2022-11-15T02:13:10.273Z,13.75
2022-11-15T02:16:29.915Z,13.25
2022-11-15T02:19:34.281Z,13.38
2022-11-15T02:22:38.076Z,13.20
2022-11-15T02:28:46.006Z,12.77
2022-11-15T02:31:38.001Z,13.23
2022-11-15T02:34:36.247Z,12.35
2022-11-15T02:37:44.214Z,13.95
2022-11-15T02:40:52.288Z,13.98
2022-11-15T02:44:01.554Z,14.20
2022-11-15T02:47:10.748Z,16.10
2022-11-15T02:50:01.619Z,25.58
2022-11-15T02:52:48.860Z,52.65
2022-11-15T02:55:34.414Z,34.05
2022-11-15T02:58:44.857Z,30.05
2022-11-15T03:01:47.776Z,18.10
2022-11-15T03:05:14.125Z,15.25
2022-11-15T03:08:55.320Z,13.65
2022-11-15T03:11:48.990Z,13.52
2022-11-15T03:14:40.398Z,14.50
2022-11-15T03:17:44.453Z,16.90
2022-11-15T03:20:31.801Z,14.95
2022-11-15T03:23:18.677Z,15.00
2022-11-15T03:26:08.428Z,17.17
2022-11-15T03:28:59.913Z,16.50
2022-11-15T03:31:51.350Z,14.20
2022-11-15T03:35:05.976Z,13.43
2022-11-15T03:38:00.895Z,13.07
2022-11-15T03:40:59.089Z,13.52
2022-11-15T03:43:55.709Z,14.40
2022-11-15T03:46:58.686Z,15.02
2022-11-15T03:52:35.221Z,14.27
2022-11-15T03:55:22.358Z,14.20
2022-11-15T03:58:07.724Z,13.00
2022-11-15T04:00:53.225Z,12.88
2022-11-15T04:03:38.706Z,12.20
2022-11-15T04:06:24.424Z,12.55
2022-11-15T04:09:09.927Z,13.57
2022-11-15T04:11:55.334Z,12.40
2022-11-15T04:15:00.831Z,13.95
2022-11-15T04:17:47.419Z,12.80
2022-11-15T04:20:51.574Z,13.15
2022-11-15T04:23:55.769Z,13.68
2022-11-15T04:26:41.131Z,13.98
2022-11-15T04:29:35.453Z,13.68
2022-11-15T04:32:21.244Z,13.50
2022-11-15T04:35:07.038Z,14.57
2022-11-15T04:37:52.315Z,13.60
2022-11-15T04:40:38.803Z,14.02
2022-11-15T04:43:24.212Z,14.55
2022-11-15T04:46:09.763Z,14.10
2022-11-15T04:48:59.039Z,15.00
2022-11-15T04:51:45.516Z,15.52
2022-11-15T04:54:31.185Z,15.23
2022-11-15T04:57:16.689Z,12.52
2022-11-15T05:00:07.930Z,14.95
2022-11-15T05:03:12.244Z,14.75
2022-11-15T05:05:58.831Z,15.63
2022-11-15T05:08:44.343Z,14.98
2022-11-15T05:11:29.585Z,18.80
2022-11-15T05:14:15.668Z,20.50
2022-11-15T05:17:01.540Z,18.02
2022-11-15T05:19:47.038Z,16.40
2022-11-15T05:22:33.077Z,17.30
2022-11-15T05:25:19.328Z,16.50
2022-11-15T05:28:05.107Z,16.65
2022-11-15T05:30:50.965Z,17.30
2022-11-15T05:33:40.776Z,16.55
2022-11-15T05:36:41.967Z,17.23
2022-11-15T05:39:27.673Z,18.75
2022-11-15T05:42:16.272Z,18.30
2022-11-15T05:45:06.064Z,19.38
2022-11-15T05:47:52.593Z,18.70
2022-11-15T05:50:42.559Z,18.67
2022-11-15T05:53:28.180Z,17.55
2022-11-15T05:56:14.569Z,18.40
2022-11-15T05:59:00.798Z,17.48
2022-11-15T06:01:46.519Z,18.15
2022-11-15T06:04:32.379Z,17.17
2022-11-15T06:07:17.999Z,17.08
2022-11-15T06:10:03.764Z,17.08
2022-11-15T06:12:59.971Z,17.13
2022-11-15T06:15:45.860Z,18.05
2022-11-15T06:18:34.773Z,18.23
2022-11-15T06:21:20.988Z,18.73
2022-11-15T06:24:07.232Z,17.55
2022-11-15T06:26:52.859Z,16.10
2022-11-15T06:29:38.270Z,18.17
2022-11-15T06:32:23.763Z,17.80
2022-11-15T06:35:09.261Z,18.85
2022-11-15T06:37:54.716Z,18.23
2022-11-15T06:40:40.762Z,18.15
2022-11-15T06:43:26.336Z,18.67
2022-11-15T06:46:11.994Z,19.65
2022-11-15T06:48:57.732Z,20.58
2022-11-15T06:51:43.282Z,19.63
2022-11-15T06:54:29.046Z,19.80
2022-11-15T06:57:14.617Z,19.52
2022-11-15T07:00:00.261Z,20.70
2022-11-15T07:02:46.088Z,18.88
2022-11-15T07:05:31.576Z,20.98
2022-11-15T07:08:17.134Z,19.80
2022-11-15T07:11:04.929Z,18.95
2022-11-15T07:13:50.386Z,16.77
2022-11-15T07:16:37.765Z,16.10
2022-11-15T07:19:22.981Z,16.13
2022-11-15T07:22:08.810Z,16.92
2022-11-15T07:24:54.915Z,17.10
2022-11-15T07:27:40.758Z,17.38
2022-11-15T07:30:27.673Z,16.90
2022-11-15T07:33:13.093Z,15.75
2022-11-15T07:36:03.023Z,17.05
2022-11-15T07:38:48.628Z,18.25
2022-11-15T07:41:34.042Z,15.75
2022-11-15T07:44:19.534Z,17.42
2022-11-15T07:47:05.058Z,16.02
2022-11-15T07:49:50.699Z,16.95
2022-11-15T07:52:36.428Z,15.55
2022-11-15T07:55:22.231Z,15.07
2022-11-15T07:58:10.756Z,14.73
2022-11-15T08:00:56.272Z,15.00
2022-11-15T08:03:42.162Z,15.18
2022-11-15T08:06:27.696Z,15.13
2022-11-15T08:09:13.235Z,15.00
2022-11-15T08:11:58.820Z,14.00
2022-11-15T08:14:44.393Z,14.45
2022-11-15T08:17:33.794Z,14.60
2022-11-15T08:20:20.546Z,15.60
2022-11-15T08:23:06.670Z,16.60
2022-11-15T08:25:52.017Z,16.58
2022-11-15T08:28:37.645Z,16.08
2022-11-15T08:31:23.460Z,15.48
2022-11-15T08:34:09.318Z,15.55
2022-11-15T08:36:54.932Z,15.32
2022-11-15T08:39:40.604Z,14.75
2022-11-15T08:42:26.134Z,14.05
2022-11-15T08:45:14.562Z,14.60
2022-11-15T08:48:02.994Z,14.45
2022-11-15T08:50:48.353Z,15.55
2022-11-15T08:53:34.898Z,16.83
2022-11-15T08:56:20.830Z,16.20
2022-11-15T08:59:06.306Z,15.38
2022-11-15T09:01:51.915Z,14.13
2022-11-15T09:04:37.726Z,14.98
2022-11-15T09:07:23.721Z,16.50
2022-11-15T09:10:09.960Z,18.10
2022-11-15T09:12:55.463Z,15.38
2022-11-15T09:15:41.363Z,19.80
2022-11-15T09:18:28.375Z,17.85
2022-11-15T09:21:14.869Z,17.67
2022-11-15T09:24:00.477Z,17.27
2022-11-15T09:26:46.110Z,16.73
2022-11-15T09:29:31.936Z,16.25
2022-11-15T09:32:17.410Z,16.13
2022-11-15T09:35:04.192Z,14.45
2022-11-15T09:37:54.961Z,15.95
2022-11-15T09:40:42.042Z,10.68
2022-11-15T09:43:40.805Z,14.82
2022-11-15T09:46:44.853Z,15.40
2022-11-15T09:49:31.922Z,14.57
2022-11-15T09:52:11.957Z,14.75
2022-11-15T09:54:57.181Z,15.80
2022-11-15T09:57:36.070Z,15.30
2022-11-15T10:03:36.939Z,14.80
2022-11-15T10:06:06.203Z,15.10
2022-11-15T10:08:48.898Z,15.57
2022-11-15T10:11:40.181Z,13.75
2022-11-15T10:14:17.070Z,19.58
2022-11-15T10:17:00.211Z,20.45
2022-11-15T10:19:48.963Z,16.27
2022-11-15T10:23:00.177Z,14.70
2022-11-15T10:25:29.903Z,14.52
2022-11-15T10:28:00.489Z,15.20
2022-11-15T10:30:46.849Z,17.35
2022-11-15T10:33:34.865Z,14.48
2022-11-15T10:36:20.658Z,14.98
2022-11-15T10:38:50.739Z,16.02
2022-11-15T10:41:31.429Z,17.25
2022-11-15T10:44:17.184Z,15.02
2022-11-15T10:46:49.155Z,16.15
2022-11-15T10:49:21.988Z,15.53
2022-11-15T10:54:37.155Z,15.70
2022-11-15T10:57:17.812Z,16.80
2022-11-15T10:59:58.890Z,15.07
2022-11-15T11:02:31.075Z,15.45
2022-11-15T11:04:59.373Z,16.70
2022-11-15T11:07:29.407Z,15.68
2022-11-15T11:10:44.576Z,16.48
2022-11-15T11:13:25.882Z,15.70
2022-11-15T11:16:15.131Z,17.00
2022-11-15T11:19:05.784Z,18.73
2022-11-15T11:22:06.857Z,16.40
2022-11-15T11:24:39.912Z,17.10
2022-11-15T11:27:09.887Z,15.90
2022-11-15T11:29:50.712Z,20.95
2022-11-15T11:33:05.402Z,19.83
2022-11-15T11:35:51.003Z,16.75
2022-11-15T11:39:04.684Z,16.83
2022-11-15T11:41:34.475Z,14.60
2022-11-15T11:44:25.794Z,15.25
2022-11-15T11:47:00.689Z,14.93
2022-11-15T11:50:00.336Z,16.48
2022-11-15T11:52:41.932Z,17.23
2022-11-15T11:55:30.894Z,17.38
2022-11-15T11:58:35.310Z,16.92
2022-11-15T12:01:24.828Z,17.63
2022-11-15T12:04:02.492Z,19.92
2022-11-15T12:06:43.697Z,16.88
2022-11-15T12:09:33.392Z,18.35
2022-11-15T12:12:12.342Z,17.48
2022-11-15T12:14:44.148Z,18.55
2022-11-15T12:17:12.949Z,15.67
2022-11-15T12:19:43.851Z,15.15
2022-11-15T12:22:33.943Z,18.50
2022-11-15T12:25:26.273Z,19.77
2022-11-15T12:28:12.940Z,21.00
2022-11-15T12:31:30.749Z,16.25
2022-11-15T12:34:04.290Z,18.05
2022-11-15T12:36:43.816Z,16.65
2022-11-15T12:39:12.778Z,16.98
2022-11-15T12:42:05.788Z,17.58
2022-11-15T12:44:32.718Z,16.27
2022-11-15T12:47:05.615Z,16.90
2022-11-15T12:49:38.735Z,16.75
2022-11-15T12:52:08.342Z,17.10
2022-11-15T12:54:41.339Z,16.85
2022-11-15T12:57:08.337Z,16.52
2022-11-15T12:59:59.598Z,18.25
2022-11-15T13:02:29.540Z,17.27
2022-11-15T13:05:23.598Z,19.83
2022-11-15T13:07:50.781Z,16.95
2022-11-15T13:10:17.708Z,19.33
2022-11-15T13:12:47.782Z,16.58
2022-11-15T13:15:14.773Z,15.88
2022-11-15T13:17:52.620Z,17.17
2022-11-15T13:20:32.816Z,16.38
2022-11-15T13:23:05.693Z,16.67
2022-11-15T13:28:17.797Z,41.13
2022-11-15T13:30:47.770Z,22.35
2022-11-15T13:33:19.113Z,18.08
2022-11-15T13:35:55.711Z,24.25
2022-11-15T13:38:25.989Z,47.63
2022-11-15T13:40:53.416Z,28.85
2022-11-15T13:43:24.118Z,23.17
2022-11-15T13:46:14.115Z,25.92
2022-11-15T13:48:47.202Z,19.45
2022-11-15T13:51:20.407Z,18.00
2022-11-15T13:54:16.875Z,20.50
2022-11-15T13:56:48.916Z,18.50
2022-11-15T13:59:27.430Z,17.33
2022-11-15T14:01:57.653Z,20.05
2022-11-15T14:04:27.483Z,18.90
2022-11-15T14:06:57.091Z,23.80
2022-11-15T14:09:24.046Z,20.08
2022-11-15T14:11:56.150Z,21.48
2022-11-15T14:14:25.913Z,131.52
2022-11-15T14:16:58.712Z,72.05
2022-11-15T14:22:16.067Z,73.85
2022-11-15T14:24:45.990Z,26.63
2022-11-15T14:27:28.473Z,21.95
2022-11-15T14:29:56.065Z,20.38
2022-11-15T14:32:24.823Z,21.10
2022-11-15T14:35:01.450Z,19.27
2022-11-15T14:37:36.508Z,21.15
2022-11-15T14:40:06.044Z,19.88
2022-11-15T14:42:33.703Z,52.50
2022-11-15T14:45:00.687Z,33.00
2022-11-15T14:47:27.668Z,22.80
2022-11-15T14:49:54.763Z,22.88
2022-11-15T14:52:31.879Z,20.73
2022-11-15T14:55:00.429Z,18.60
2022-11-15T14:57:29.409Z,21.65
2022-11-15T14:59:58.384Z,20.77
2022-11-15T15:02:41.834Z,20.90
2022-11-15T15:05:24.628Z,19.73
2022-11-15T15:07:54.338Z,21.13
2022-11-15T15:10:39.665Z,22.70
2022-11-15T15:13:14.074Z,29.73
2022-11-15T15:15:41.387Z,47.15
2022-11-15T15:18:09.712Z,28.27
2022-11-15T15:20:40.224Z,24.08
2022-11-15T15:23:19.760Z,24.50
2022-11-15T15:25:49.879Z,19.65
2022-11-15T15:28:17.404Z,25.13
2022-11-15T15:30:44.700Z,18.77
2022-11-15T15:33:11.879Z,21.02
2022-11-15T15:35:38.989Z,21.42
2022-11-15T15:38:06.113Z,18.95
2022-11-15T15:40:35.548Z,20.35
2022-11-15T15:43:02.473Z,19.75
2022-11-15T15:45:30.750Z,21.80
2022-11-15T15:47:57.966Z,22.02
2022-11-15T15:50:27.736Z,22.63
2022-11-15T15:52:58.592Z,22.88
2022-11-15T15:55:26.880Z,26.95
2022-11-15T15:57:54.054Z,27.50
2022-11-15T16:00:24.212Z,30.15
2022-11-15T16:02:51.790Z,30.38
2022-11-15T16:05:19.206Z,34.70
2022-11-15T16:07:47.447Z,27.63
2022-11-15T16:10:30.659Z,31.80
2022-11-15T16:12:58.619Z,33.20
2022-11-15T16:15:28.054Z,29.98
2022-11-15T16:17:57.394Z,26.33
2022-11-15T16:20:45.946Z,26.58
2022-11-15T16:23:15.376Z,27.58
2022-11-15T16:25:48.636Z,26.23
2022-11-15T16:28:18.935Z,24.33
2022-11-15T16:30:46.275Z,27.98
2022-11-15T16:33:13.465Z,28.42
2022-11-15T16:35:40.437Z,28.10
2022-11-15T16:38:15.328Z,31.70
2022-11-15T16:40:42.411Z,31.40
2022-11-15T16:43:09.517Z,29.77
2022-11-15T16:45:36.890Z,29.77
2022-11-15T16:48:04.776Z,26.35
2022-11-15T16:50:39.864Z,27.42
2022-11-15T16:53:06.901Z,25.70
2022-11-15T16:55:33.874Z,29.63
2022-11-15T16:58:01.960Z,25.90
2022-11-15T17:00:29.292Z,27.25
2022-11-15T17:02:56.968Z,34.63
2022-11-15T17:05:27.335Z,32.55
2022-11-15T17:07:54.662Z,29.00
2022-11-15T17:10:23.572Z,27.90
2022-11-15T17:12:52.217Z,26.63
2022-11-15T17:15:19.773Z,25.73
2022-11-15T17:17:53.175Z,26.42
2022-11-15T17:20:22.596Z,26.38
2022-11-15T17:22:49.696Z,29.38
2022-11-15T17:25:16.928Z,26.23
2022-11-15T17:27:44.389Z,28.73
2022-11-15T17:30:15.306Z,31.67
2022-11-15T17:32:44.207Z,34.13
2022-11-15T17:35:15.557Z,35.97
2022-11-15T17:37:43.839Z,29.50
2022-11-15T17:40:11.809Z,30.17
2022-11-15T17:42:41.509Z,31.45
2022-11-15T17:45:11.021Z,32.67
2022-11-15T17:47:39.001Z,29.75
2022-11-15T17:50:06.617Z,36.42
2022-11-15T17:52:34.301Z,36.70
2022-11-15T17:55:01.722Z,34.53
2022-11-15T17:57:29.228Z,34.10
2022-11-15T17:59:57.702Z,32.83
2022-11-15T18:02:25.106Z,32.03
2022-11-15T18:04:52.264Z,29.90
2022-11-15T18:07:19.303Z,34.38
2022-11-15T18:09:46.225Z,35.65
2022-11-15T18:12:13.447Z,39.78
2022-11-15T18:14:43.760Z,38.20
2022-11-15T18:17:10.776Z,34.15
2022-11-15T18:19:37.920Z,32.35
2022-11-15T18:22:07.445Z,33.38
2022-11-15T18:24:38.890Z,31.80
2022-11-15T18:27:07.497Z,30.15
2022-11-15T18:29:38.194Z,28.42
2022-11-15T18:32:12.845Z,29.17
2022-11-15T18:34:40.597Z,27.17
2022-11-15T18:37:08.212Z,32.45
2022-11-15T18:39:35.557Z,30.15
2022-11-15T18:42:02.995Z,31.02
2022-11-15T18:44:30.711Z,29.08
2022-11-15T18:46:58.811Z,28.23
2022-11-15T18:49:26.206Z,31.67
2022-11-15T18:51:53.366Z,30.77
2022-11-15T18:54:20.702Z,30.73
2022-11-15T18:56:48.123Z,32.08
2022-11-15T18:59:16.259Z,33.38
2022-11-15T19:01:48.181Z,34.42
2022-11-15T19:04:21.841Z,35.50
2022-11-15T19:06:51.717Z,31.15
2022-11-15T19:09:21.125Z,33.58
2022-11-15T19:11:51.899Z,29.70
2022-11-15T19:14:20.303Z,31.20
2022-11-15T19:16:50.851Z,29.48
2022-11-15T19:19:23.572Z,29.60
2022-11-15T19:21:52.298Z,28.65
2022-11-15T19:24:19.780Z,29.33
2022-11-15T19:26:47.397Z,29.58
2022-11-15T19:29:14.659Z,27.75
2022-11-15T19:31:42.685Z,25.67
2022-11-15T19:34:10.873Z,28.98
2022-11-15T19:36:40.662Z,28.85
2022-11-15T19:39:13.276Z,29.75
2022-11-15T19:44:12.079Z,27.45
2022-11-15T19:46:40.826Z,28.08
2022-11-15T19:49:11.423Z,28.38
2022-11-15T19:51:39.605Z,31.23
2022-11-15T19:54:09.809Z,29.35
2022-11-15T19:56:41.191Z,28.05
2022-11-15T19:59:09.383Z,29.25
2022-11-15T20:01:39.050Z,29.20
2022-11-15T20:04:08.112Z,29.23
2022-11-15T20:06:42.710Z,32.30
2022-11-15T20:09:14.456Z,30.27
2022-11-15T20:11:41.842Z,30.63
2022-11-15T20:14:11.274Z,30.42
2022-11-15T20:16:39.056Z,31.17
2022-11-15T20:19:07.352Z,31.00
2022-11-15T20:21:34.966Z,31.50
2022-11-15T20:24:02.149Z,28.95
2022-11-15T20:26:30.553Z,30.38
2022-11-15T20:29:01.554Z,27.42
2022-11-15T20:31:33.133Z,29.50
2022-11-15T20:34:00.667Z,28.38
2022-11-15T20:36:28.541Z,28.73
2022-11-15T20:38:59.853Z,29.67
2022-11-15T20:41:27.948Z,30.75
2022-11-15T20:43:55.407Z,28.88
2022-11-15T20:46:22.595Z,27.58
2022-11-15T20:48:49.618Z,29.13
2022-11-15T20:51:19.728Z,30.33
2022-11-15T20:53:48.697Z,31.20
2022-11-15T20:56:21.946Z,30.00
2022-11-15T20:58:53.531Z,28.85
2022-11-15T21:01:25.208Z,28.02
2022-11-15T21:03:54.167Z,29.40
2022-11-15T21:06:22.606Z,27.25
2022-11-15T21:09:09.997Z,29.67
2022-11-15T21:11:56.513Z,28.02
2022-11-15T21:14:23.735Z,27.00
2022-11-15T21:16:51.490Z,27.20
2022-11-15T21:19:21.597Z,26.75
2022-11-15T21:21:52.813Z,26.73
2022-11-15T21:24:23.604Z,27.63
2022-11-15T21:26:52.113Z,28.67
2022-11-15T21:29:19.294Z,27.60
2022-11-15T21:31:47.689Z,26.08
2022-11-15T21:34:15.205Z,27.00
2022-11-15T21:36:42.236Z,27.38
2022-11-15T21:39:09.306Z,30.00
2022-11-15T21:41:36.292Z,27.48
2022-11-15T21:44:04.369Z,30.38
2022-11-15T21:46:32.551Z,31.15
2022-11-15T21:48:59.863Z,30.40
2022-11-15T21:51:26.870Z,29.40
2022-11-15T21:53:57.481Z,29.73
2022-11-15T21:56:26.362Z,28.33
2022-11-15T21:58:54.351Z,32.10
2022-11-15T22:01:41.982Z,30.65
2022-11-15T22:04:09.144Z,30.20
2022-11-15T22:06:36.710Z,30.95
2022-11-15T22:09:04.733Z,30.00
2022-11-15T22:11:31.790Z,31.58
2022-11-15T22:13:59.223Z,30.25
2022-11-15T22:16:26.363Z,29.20
2022-11-15T22:18:53.355Z,33.00
2022-11-15T22:21:21.999Z,32.05
2022-11-15T22:23:48.976Z,30.85
2022-11-15T22:26:23.406Z,32.60
2022-11-15T22:28:51.168Z,33.60
2022-11-15T22:31:18.213Z,33.20
2022-11-15T22:33:45.277Z,30.58
2022-11-15T22:36:13.147Z,33.47
2022-11-15T22:38:40.256Z,31.80
2022-11-15T22:41:07.288Z,28.10
2022-11-15T22:43:35.009Z,30.85
2022-11-15T22:46:03.698Z,34.08
2022-11-15T22:48:36.806Z,36.70
2022-11-15T22:51:05.162Z,32.20
2022-11-15T22:53:32.266Z,34.65
2022-11-15T22:56:01.446Z,33.50
2022-11-15T22:58:30.156Z,31.75
2022-11-15T23:00:59.556Z,33.78
2022-11-15T23:03:27.724Z,31.30
2022-11-15T23:05:54.755Z,31.65
2022-11-15T23:08:23.322Z,32.35
2022-11-15T23:11:09.416Z,32.35
2022-11-15T23:13:36.620Z,34.83
2022-11-15T23:16:29.828Z,31.88
2022-11-15T23:18:58.494Z,32.95
2022-11-15T23:21:46.855Z,31.92
2022-11-15T23:24:14.910Z,30.27
2022-11-15T23:26:42.362Z,29.55
2022-11-15T23:29:11.321Z,31.92
2022-11-15T23:32:02.097Z,31.55
2022-11-15T23:34:31.580Z,30.77
2022-11-15T23:36:59.738Z,34.90
2022-11-15T23:39:26.878Z,32.08
2022-11-15T23:41:54.114Z,31.25
2022-11-15T23:44:21.139Z,32.65
2022-11-15T23:46:48.195Z,31.67
2022-11-15T23:49:15.259Z,31.80
2022-11-15T23:51:42.524Z,29.63
2022-11-15T23:54:10.062Z,33.40
2022-11-15T23:56:37.392Z,28.73
2022-11-15T23:59:05.058Z,32.97
